createdAt,value
2018-03-16T00:01:05.084Z,4.31
2018-03-16T00:03:32.911Z,4.34
2018-03-16T00:06:00.788Z,4.24
2018-03-16T00:08:28.514Z,4.31
2018-03-16T00:10:56.201Z,4.36
2018-03-16T00:13:24.019Z,4.40
2018-03-16T00:15:51.596Z,4.43
2018-03-16T00:18:19.232Z,4.49
2018-03-16T00:20:46.821Z,4.61
2018-03-16T00:23:14.506Z,4.51
2018-03-16T00:25:42.463Z,4.46
2018-03-16T00:28:10.141Z,4.43
2018-03-16T00:30:37.955Z,4.33
2018-03-16T00:33:05.628Z,4.32
2018-03-16T00:35:33.406Z,4.17
2018-03-16T00:38:01.058Z,4.29
2018-03-16T00:40:28.863Z,4.34
2018-03-16T00:42:56.642Z,4.23
2018-03-16T00:45:24.297Z,4.20
2018-03-16T00:47:51.941Z,4.26
2018-03-16T00:50:19.716Z,4.23
2018-03-16T00:52:47.337Z,4.26
2018-03-16T00:55:15.014Z,4.31
2018-03-16T00:57:42.792Z,4.19
2018-03-16T01:00:10.568Z,4.28
2018-03-16T01:02:38.239Z,4.22
2018-03-16T01:05:05.961Z,4.33
2018-03-16T01:07:33.652Z,4.26
2018-03-16T01:10:01.263Z,4.36
2018-03-16T01:12:28.945Z,4.25
2018-03-16T01:14:56.609Z,4.31
2018-03-16T01:17:24.402Z,4.14
2018-03-16T01:19:52.182Z,4.38
2018-03-16T01:22:19.840Z,4.29
2018-03-16T01:24:47.485Z,4.32
2018-03-16T01:27:15.072Z,4.19
2018-03-16T01:29:42.767Z,4.37
2018-03-16T01:32:10.411Z,4.36
2018-03-16T01:34:38.141Z,4.33
2018-03-16T01:37:05.908Z,4.46
2018-03-16T01:39:33.742Z,4.32
2018-03-16T01:42:01.566Z,4.32
2018-03-16T01:44:29.229Z,4.42
2018-03-16T01:46:56.873Z,4.35
2018-03-16T01:49:24.483Z,4.31
2018-03-16T01:51:52.154Z,4.41
2018-03-16T01:54:19.768Z,4.30
2018-03-16T01:56:47.519Z,4.20
2018-03-16T01:59:15.179Z,4.22
2018-03-16T02:01:42.968Z,4.24
2018-03-16T02:04:10.753Z,4.17
2018-03-16T02:06:38.513Z,4.08
2018-03-16T02:09:06.204Z,4.16
2018-03-16T02:11:33.865Z,4.00
2018-03-16T02:14:01.559Z,3.99
2018-03-16T02:16:29.149Z,4.07
2018-03-16T02:18:56.903Z,4.09
2018-03-16T02:21:24.686Z,4.10
2018-03-16T02:23:52.283Z,4.06
2018-03-16T02:26:20.136Z,4.04
2018-03-16T02:28:47.814Z,4.06
2018-03-16T02:31:15.399Z,4.15
2018-03-16T02:33:43.026Z,4.15
2018-03-16T02:36:10.720Z,4.18
2018-03-16T02:38:38.496Z,4.10
2018-03-16T02:41:06.155Z,4.18
2018-03-16T02:43:33.856Z,4.07
2018-03-16T02:46:01.614Z,4.06
2018-03-16T02:48:29.318Z,4.03
2018-03-16T02:50:56.989Z,4.14
2018-03-16T02:53:24.978Z,4.16
2018-03-16T02:55:52.571Z,4.09
2018-03-16T02:58:20.217Z,4.14
2018-03-16T03:00:47.900Z,4.10
2018-03-16T03:03:15.528Z,4.05
2018-03-16T03:05:43.344Z,4.19
2018-03-16T03:08:11.127Z,4.21
2018-03-16T03:10:38.913Z,4.22
2018-03-16T03:13:06.583Z,4.15
2018-03-16T03:15:34.307Z,4.16
2018-03-16T03:18:02.000Z,4.24
2018-03-16T03:20:29.608Z,4.20
2018-03-16T03:22:57.389Z,4.20
2018-03-16T03:25:25.153Z,4.20
2018-03-16T03:27:52.786Z,4.22
2018-03-16T03:30:20.379Z,4.30
2018-03-16T03:32:48.194Z,4.28
2018-03-16T03:35:15.878Z,4.25
2018-03-16T03:37:43.541Z,4.23
2018-03-16T03:40:11.215Z,4.46
2018-03-16T03:42:38.840Z,4.38
2018-03-16T03:45:06.573Z,4.35
2018-03-16T03:47:34.323Z,4.45
2018-03-16T03:50:02.023Z,4.44
2018-03-16T03:52:29.686Z,4.40
2018-03-16T03:54:57.373Z,4.33
2018-03-16T03:57:24.998Z,4.41
2018-03-16T03:59:52.609Z,4.47
2018-03-16T04:02:20.206Z,4.44
2018-03-16T04:04:47.870Z,4.44
2018-03-16T04:07:15.481Z,4.34
2018-03-16T04:09:43.201Z,4.41
2018-03-16T04:12:10.966Z,4.32
2018-03-16T04:14:38.878Z,4.51
2018-03-16T04:17:06.657Z,4.50
2018-03-16T04:19:34.296Z,4.45
2018-03-16T04:22:01.996Z,4.35
2018-03-16T04:24:29.588Z,4.41
2018-03-16T04:26:57.250Z,4.25
2018-03-16T04:29:24.839Z,4.36
2018-03-16T04:31:52.613Z,4.28
2018-03-16T04:34:20.386Z,4.23
2018-03-16T04:36:48.055Z,4.27
2018-03-16T04:39:15.830Z,4.24
2018-03-16T04:41:43.515Z,4.23
2018-03-16T04:44:11.271Z,4.13
2018-03-16T04:46:39.040Z,4.04
2018-03-16T04:49:06.631Z,4.03
2018-03-16T04:51:34.208Z,4.15
2018-03-16T04:54:01.893Z,4.13
2018-03-16T04:56:29.669Z,4.20
2018-03-16T04:58:57.261Z,4.08
2018-03-16T05:01:25.018Z,4.06
2018-03-16T05:03:52.756Z,4.09
2018-03-16T05:06:20.474Z,4.22
2018-03-16T05:08:48.353Z,4.21
2018-03-16T05:11:16.582Z,4.26
2018-03-16T05:13:44.228Z,4.17
2018-03-16T05:16:11.876Z,4.22
2018-03-16T05:18:39.560Z,4.04
2018-03-16T05:21:07.156Z,3.95
2018-03-16T05:23:34.859Z,4.06
2018-03-16T05:26:02.517Z,3.91
2018-03-16T05:28:30.270Z,4.05
2018-03-16T05:30:58.052Z,3.96
2018-03-16T05:33:26.101Z,3.98
2018-03-16T05:35:53.913Z,3.98
2018-03-16T05:38:21.694Z,3.99
2018-03-16T05:40:49.452Z,3.90
2018-03-16T05:43:17.059Z,3.87
2018-03-16T05:45:44.816Z,3.71
2018-03-16T05:48:12.549Z,3.86
2018-03-16T05:50:40.367Z,3.87
2018-03-16T05:53:08.355Z,3.73
2018-03-16T05:55:36.041Z,3.73
2018-03-16T05:58:03.803Z,3.87
2018-03-16T06:00:31.440Z,3.74
2018-03-16T06:02:59.164Z,3.75
2018-03-16T06:05:26.839Z,3.67
2018-03-16T06:07:54.499Z,3.66
2018-03-16T06:10:22.296Z,3.76
2018-03-16T06:12:49.906Z,3.65
2018-03-16T06:15:17.628Z,3.64
2018-03-16T06:17:45.243Z,3.75
2018-03-16T06:20:12.839Z,3.59
2018-03-16T06:22:40.630Z,3.58
2018-03-16T06:25:08.235Z,3.66
2018-03-16T06:27:35.918Z,3.55
2018-03-16T06:30:03.800Z,3.61
2018-03-16T06:32:31.380Z,3.52
2018-03-16T06:34:59.153Z,3.37
2018-03-16T06:37:26.928Z,3.29
2018-03-16T06:39:54.599Z,3.33
2018-03-16T06:42:22.383Z,3.22
2018-03-16T06:44:50.259Z,3.19
2018-03-16T06:47:17.935Z,3.10
2018-03-16T06:49:45.686Z,3.15
2018-03-16T06:52:13.347Z,3.11
2018-03-16T06:54:41.054Z,3.08
2018-03-16T06:57:08.636Z,3.03
2018-03-16T06:59:36.377Z,3.10
2018-03-16T07:02:04.089Z,2.97
2018-03-16T07:04:31.977Z,2.90
2018-03-16T07:06:59.564Z,2.88
2018-03-16T07:09:27.155Z,2.88
2018-03-16T07:11:54.806Z,2.75
2018-03-16T07:14:22.399Z,2.76
2018-03-16T07:16:50.115Z,2.76
2018-03-16T07:19:17.822Z,2.68
2018-03-16T07:21:45.600Z,2.72
2018-03-16T07:24:13.377Z,2.70
2018-03-16T07:26:41.264Z,2.67
2018-03-16T07:29:09.035Z,2.55
2018-03-16T07:31:36.629Z,2.56
2018-03-16T07:34:04.376Z,2.60
2018-03-16T07:36:31.979Z,2.56
2018-03-16T07:38:59.648Z,2.55
2018-03-16T07:41:27.523Z,2.54
2018-03-16T07:43:55.115Z,2.52
2018-03-16T07:46:22.873Z,2.46
2018-03-16T07:48:50.602Z,2.44
2018-03-16T07:51:18.204Z,2.45
2018-03-16T07:53:45.958Z,2.47
2018-03-16T07:56:13.658Z,2.40
2018-03-16T07:58:41.393Z,2.40
2018-03-16T08:01:09.229Z,2.38
2018-03-16T08:03:37.007Z,2.40
2018-03-16T08:06:04.626Z,2.23
2018-03-16T08:08:32.446Z,2.21
2018-03-16T08:11:00.242Z,2.32
2018-03-16T08:13:28.015Z,2.24
2018-03-16T08:15:55.657Z,2.25
2018-03-16T08:18:23.366Z,2.32
2018-03-16T08:20:51.090Z,2.32
2018-03-16T08:23:18.926Z,2.39
2018-03-16T08:25:46.524Z,2.30
2018-03-16T08:28:15.227Z,2.36
2018-03-16T08:30:42.957Z,2.33
2018-03-16T08:33:10.640Z,2.28
2018-03-16T08:35:38.252Z,2.36
2018-03-16T08:38:05.999Z,2.41
2018-03-16T08:40:33.657Z,2.41
2018-03-16T08:43:01.415Z,2.39
2018-03-16T08:45:29.235Z,2.38
2018-03-16T08:47:56.887Z,2.50
2018-03-16T08:50:24.687Z,2.38
2018-03-16T08:52:52.271Z,2.42
2018-03-16T08:55:19.890Z,2.33
2018-03-16T08:57:47.707Z,2.44
2018-03-16T09:00:15.490Z,2.46
2018-03-16T09:02:43.152Z,2.41
2018-03-16T09:05:10.737Z,2.37
2018-03-16T09:07:38.349Z,2.39
2018-03-16T09:10:06.085Z,2.43
2018-03-16T09:12:33.795Z,2.36
2018-03-16T09:15:01.438Z,2.47
2018-03-16T09:17:29.111Z,2.52
2018-03-16T09:19:56.710Z,2.43
2018-03-16T09:22:24.359Z,2.56
2018-03-16T09:24:52.027Z,2.42
2018-03-16T09:27:19.701Z,2.44
2018-03-16T09:29:47.504Z,2.54
2018-03-16T09:32:15.373Z,2.46
2018-03-16T09:34:43.147Z,2.42
2018-03-16T09:37:10.927Z,2.36
2018-03-16T09:39:38.603Z,2.40
2018-03-16T09:42:06.213Z,2.38
2018-03-16T09:44:33.944Z,2.25
2018-03-16T09:47:01.622Z,2.41
2018-03-16T09:49:29.410Z,2.48
2018-03-16T09:51:57.188Z,2.41
2018-03-16T09:54:24.836Z,2.61
2018-03-16T09:56:52.642Z,2.41
2018-03-16T09:59:20.315Z,2.39
2018-03-16T10:01:47.979Z,2.46
2018-03-16T10:04:15.767Z,2.47
2018-03-16T10:06:43.389Z,2.54
2018-03-16T10:09:11.219Z,2.69
2018-03-16T10:11:39.001Z,2.54
2018-03-16T10:14:06.643Z,2.54
2018-03-16T10:16:34.454Z,2.47
2018-03-16T10:19:02.041Z,2.41
2018-03-16T10:21:29.806Z,2.31
2018-03-16T10:23:57.481Z,2.34
2018-03-16T10:26:25.258Z,2.50
2018-03-16T10:28:52.832Z,2.44
2018-03-16T10:31:20.472Z,2.34
2018-03-16T10:33:48.285Z,2.42
2018-03-16T10:36:15.861Z,2.25
2018-03-16T10:38:43.527Z,2.28
2018-03-16T10:41:11.414Z,2.33
2018-03-16T10:43:39.092Z,2.32
2018-03-16T10:46:06.832Z,2.24
2018-03-16T10:48:34.464Z,2.26
2018-03-16T10:51:02.161Z,2.25
2018-03-16T10:53:29.755Z,2.33
2018-03-16T10:55:57.466Z,2.55
2018-03-16T10:58:25.251Z,2.55
2018-03-16T11:00:58.563Z,2.43
2018-03-16T11:06:27.700Z,2.37
2018-03-16T11:08:55.362Z,2.42
2018-03-16T11:11:22.955Z,2.38
2018-03-16T11:13:50.590Z,2.40
2018-03-16T11:16:18.400Z,2.58
2018-03-16T11:18:46.072Z,2.58
2018-03-16T11:21:13.911Z,2.39
2018-03-16T11:23:41.707Z,2.51
2018-03-16T11:26:09.294Z,2.57
2018-03-16T11:28:36.968Z,2.35
2018-03-16T11:31:04.549Z,2.43
2018-03-16T11:33:32.152Z,2.37
2018-03-16T11:35:59.861Z,2.52
2018-03-16T11:38:27.566Z,2.68
2018-03-16T11:40:55.357Z,2.45
2018-03-16T11:43:22.975Z,2.37
2018-03-16T11:45:50.814Z,2.24
2018-03-16T11:48:18.540Z,2.37
2018-03-16T11:50:46.259Z,2.47
2018-03-16T11:53:13.885Z,2.45
2018-03-16T11:55:41.524Z,2.42
2018-03-16T11:58:09.114Z,2.39
2018-03-16T12:00:36.696Z,2.39
2018-03-16T12:03:04.431Z,2.41
2018-03-16T12:05:32.326Z,2.28
2018-03-16T12:07:59.981Z,2.34
2018-03-16T12:10:27.575Z,2.22
2018-03-16T12:12:55.217Z,2.28
2018-03-16T12:15:22.972Z,2.41
2018-03-16T12:17:50.639Z,2.34
2018-03-16T12:20:18.365Z,2.11
2018-03-16T12:22:45.980Z,2.28
2018-03-16T12:25:13.661Z,2.42
2018-03-16T12:27:41.260Z,2.36
2018-03-16T12:30:08.971Z,2.32
2018-03-16T12:32:36.649Z,2.50
2018-03-16T12:35:04.528Z,2.49
2018-03-16T12:37:32.305Z,2.49
2018-03-16T12:40:00.074Z,2.56
2018-03-16T12:42:27.699Z,2.53
2018-03-16T12:44:55.287Z,2.41
2018-03-16T12:47:23.111Z,2.48
2018-03-16T12:49:50.782Z,2.38
2018-03-16T12:52:18.664Z,2.35
2018-03-16T12:54:46.253Z,2.26
2018-03-16T12:57:13.974Z,2.11
2018-03-16T12:59:41.769Z,2.30
2018-03-16T13:02:09.374Z,2.25
2018-03-16T13:04:36.958Z,2.15
2018-03-16T13:07:04.591Z,2.22
2018-03-16T13:09:32.392Z,2.31
2018-03-16T13:12:00.070Z,2.27
2018-03-16T13:14:27.728Z,2.27
2018-03-16T13:16:55.404Z,2.24
2018-03-16T13:19:23.019Z,2.19
2018-03-16T13:21:50.600Z,2.15
2018-03-16T13:24:18.206Z,2.24
2018-03-16T13:26:46.002Z,2.25
2018-03-16T13:29:13.680Z,2.04
2018-03-16T13:31:41.527Z,2.07
2018-03-16T13:34:09.351Z,2.12
2018-03-16T13:36:37.088Z,2.09
2018-03-16T13:39:05.008Z,2.08
2018-03-16T13:41:32.992Z,2.21
2018-03-16T13:44:00.645Z,2.15
2018-03-16T13:46:28.336Z,2.09
2018-03-16T13:48:56.026Z,2.10
2018-03-16T13:51:23.689Z,2.14
2018-03-16T13:53:51.436Z,2.04
2018-03-16T13:56:19.247Z,2.06
2018-03-16T13:58:47.025Z,2.11
2018-03-16T14:01:14.680Z,2.05
2018-03-16T14:03:42.376Z,1.99
2018-03-16T14:06:10.040Z,1.95
2018-03-16T14:08:37.828Z,2.10
2018-03-16T14:11:05.413Z,2.04
2018-03-16T14:13:33.173Z,1.96
2018-03-16T14:16:00.834Z,2.05
2018-03-16T14:18:28.634Z,1.97
2018-03-16T14:20:56.612Z,1.92
2018-03-16T14:23:24.372Z,1.99
2018-03-16T14:25:52.009Z,2.10
2018-03-16T14:28:19.639Z,1.99
2018-03-16T14:30:47.325Z,1.92
2018-03-16T14:33:14.993Z,1.97
2018-03-16T14:35:42.768Z,2.00
2018-03-16T14:38:10.492Z,1.87
2018-03-16T14:40:38.190Z,1.77
2018-03-16T14:43:06.004Z,1.79
2018-03-16T14:45:33.772Z,1.76
2018-03-16T14:48:01.370Z,1.72
2018-03-16T14:50:28.959Z,1.71
2018-03-16T14:52:56.807Z,1.69
2018-03-16T14:55:24.466Z,1.72
2018-03-16T14:57:52.159Z,1.57
2018-03-16T15:00:19.895Z,1.72
2018-03-16T15:02:47.712Z,1.73
2018-03-16T15:05:15.289Z,1.68
2018-03-16T15:07:42.940Z,1.65
2018-03-16T15:10:11.046Z,1.68
2018-03-16T15:12:38.615Z,1.79
2018-03-16T15:15:06.396Z,1.82
2018-03-16T15:17:34.021Z,1.75
2018-03-16T15:20:01.848Z,1.87
2018-03-16T15:22:29.618Z,1.79
2018-03-16T15:24:57.510Z,1.78
2018-03-16T15:27:25.184Z,1.76
2018-03-16T15:29:53.014Z,1.84
2018-03-16T15:32:20.850Z,1.78
2018-03-16T15:34:48.434Z,1.72
2018-03-16T15:37:16.298Z,1.55
2018-03-16T15:39:43.970Z,1.65
2018-03-16T15:42:11.751Z,1.80
2018-03-16T15:44:40.160Z,1.65
2018-03-16T15:47:07.807Z,1.70
2018-03-16T15:49:35.703Z,1.72
2018-03-16T15:52:03.276Z,1.69
2018-03-16T15:54:30.894Z,1.73
2018-03-16T15:56:58.724Z,1.83
2018-03-16T15:59:26.389Z,1.70
2018-03-16T16:01:53.973Z,1.52
2018-03-16T16:04:21.854Z,1.57
2018-03-16T16:06:49.636Z,1.53
2018-03-16T16:09:17.398Z,1.46
2018-03-16T16:11:45.006Z,1.38
2018-03-16T16:14:12.656Z,1.34
2018-03-16T16:16:40.307Z,1.26
2018-03-16T16:19:08.112Z,1.33
2018-03-16T16:21:35.690Z,1.37
2018-03-16T16:24:03.347Z,1.38
2018-03-16T16:26:31.024Z,1.18
2018-03-16T16:28:58.749Z,1.24
2018-03-16T16:31:26.387Z,1.14
2018-03-16T16:33:54.059Z,1.04
2018-03-16T16:36:21.634Z,1.02
2018-03-16T16:38:49.309Z,1.03
2018-03-16T16:41:17.092Z,1.06
2018-03-16T16:43:44.869Z,1.05
2018-03-16T16:46:12.497Z,0.84
2018-03-16T16:48:40.105Z,0.76
2018-03-16T16:51:07.694Z,0.66
2018-03-16T16:53:35.364Z,0.68
2018-03-16T16:56:03.038Z,0.65
2018-03-16T16:58:30.701Z,0.67
2018-03-16T17:00:58.490Z,0.69
2018-03-16T17:03:26.167Z,0.66
2018-03-16T17:05:53.936Z,0.63
2018-03-16T17:08:21.724Z,0.63
2018-03-16T17:10:49.399Z,0.62
2018-03-16T17:13:16.978Z,0.53
2018-03-16T17:15:44.752Z,0.54
2018-03-16T17:18:12.433Z,0.54
2018-03-16T17:20:40.091Z,0.56
2018-03-16T17:23:07.882Z,0.51
2018-03-16T17:25:35.551Z,0.41
2018-03-16T17:28:03.141Z,0.40
2018-03-16T17:30:30.787Z,0.39
2018-03-16T17:32:58.683Z,0.32
2018-03-16T17:35:26.460Z,0.26
2018-03-16T17:37:54.067Z,0.25
2018-03-16T17:40:21.916Z,0.27
2018-03-16T17:42:49.567Z,0.25
2018-03-16T17:45:17.200Z,0.26
2018-03-16T17:47:44.838Z,0.24
2018-03-16T17:50:12.617Z,0.23
2018-03-16T17:52:40.178Z,0.27
2018-03-16T17:55:07.826Z,0.25
2018-03-16T17:57:35.437Z,0.23
2018-03-16T18:00:03.283Z,0.25
2018-03-16T18:02:31.098Z,0.15
2018-03-16T18:04:58.874Z,0.13
2018-03-16T18:07:26.547Z,0.13
2018-03-16T18:09:55.200Z,0.08
2018-03-16T18:12:22.820Z,0.10
2018-03-16T18:14:50.396Z,0.10
2018-03-16T18:17:18.122Z,0.09
2018-03-16T18:19:45.748Z,0.09
2018-03-16T18:22:13.522Z,0.09
2018-03-16T18:24:41.301Z,0.01
2018-03-16T18:27:08.980Z,0.04
2018-03-16T18:29:36.861Z,0.02
2018-03-16T18:32:04.617Z,0.01
2018-03-16T18:34:32.361Z,0.00
2018-03-16T18:36:59.933Z,-0.07
2018-03-16T18:39:31.217Z,-0.06
2018-03-16T18:42:03.781Z,0.02
2018-03-16T18:44:36.169Z,-0.12
2018-03-16T18:47:08.088Z,-0.17
2018-03-16T18:49:40.124Z,-0.19
2018-03-16T18:52:11.612Z,-0.18
2018-03-16T18:54:44.684Z,-0.19
2018-03-16T18:57:12.624Z,-0.26
2018-03-16T18:59:40.197Z,-0.30
2018-03-16T19:02:07.776Z,-0.26
2018-03-16T19:04:40.947Z,-0.23
2018-03-16T19:07:13.109Z,-0.24
2018-03-16T19:09:42.254Z,-0.28
2018-03-16T19:12:12.372Z,-0.21
2018-03-16T19:14:42.129Z,-0.20
2018-03-16T19:17:10.007Z,-0.26
2018-03-16T19:19:37.786Z,-0.22
2018-03-16T19:22:05.462Z,-0.24
2018-03-16T19:24:33.070Z,-0.26
2018-03-16T19:27:00.916Z,-0.22
2018-03-16T19:29:28.696Z,-0.18
2018-03-16T19:31:56.478Z,-0.24
2018-03-16T19:34:24.227Z,-0.31
2018-03-16T19:36:52.090Z,-0.26
2018-03-16T19:39:19.791Z,-0.28
2018-03-16T19:41:47.354Z,-0.23
2018-03-16T19:44:15.153Z,-0.30
2018-03-16T19:46:42.878Z,-0.25
2018-03-16T19:49:10.435Z,-0.32
2018-03-16T19:51:38.066Z,-0.33
2018-03-16T19:54:05.715Z,-0.28
2018-03-16T19:56:33.414Z,-0.27
2018-03-16T19:59:01.038Z,-0.37
2018-03-16T20:01:28.875Z,-0.33
2018-03-16T20:03:56.499Z,-0.26
2018-03-16T20:06:24.369Z,-0.25
2018-03-16T20:08:52.011Z,-0.31
2018-03-16T20:11:19.682Z,-0.30
2018-03-16T20:13:47.258Z,-0.30
2018-03-16T20:16:14.924Z,-0.38
2018-03-16T20:18:42.609Z,-0.32
2018-03-16T20:21:10.392Z,-0.33
2018-03-16T20:23:38.169Z,-0.32
2018-03-16T20:26:05.789Z,-0.34
2018-03-16T20:28:33.510Z,-0.36
2018-03-16T20:31:01.189Z,-0.36
2018-03-16T20:33:28.814Z,-0.35
2018-03-16T20:35:56.388Z,-0.34
2018-03-16T20:38:23.997Z,-0.34
2018-03-16T20:40:51.599Z,-0.35
2018-03-16T20:43:19.264Z,-0.31
2018-03-16T20:45:46.930Z,-0.41
2018-03-16T20:48:14.517Z,-0.38
2018-03-16T20:50:42.181Z,-0.32
2018-03-16T20:53:09.782Z,-0.35
2018-03-16T20:55:38.530Z,-0.30
2018-03-16T20:58:06.134Z,-0.37
2018-03-16T21:00:33.814Z,-0.38
2018-03-16T21:03:01.579Z,-0.35
2018-03-16T21:05:29.269Z,-0.34
2018-03-16T21:07:56.926Z,-0.33
2018-03-16T21:10:24.720Z,-0.39
2018-03-16T21:12:52.332Z,-0.32
2018-03-16T21:15:19.931Z,-0.35
2018-03-16T21:17:47.538Z,-0.41
2018-03-16T21:20:19.010Z,-0.42
2018-03-16T21:22:46.696Z,-0.35
2018-03-16T21:25:14.327Z,-0.41
2018-03-16T21:27:42.021Z,-0.44
2018-03-16T21:30:11.142Z,-0.49
2018-03-16T21:32:38.818Z,-0.52
2018-03-16T21:35:06.411Z,-0.47
2018-03-16T21:37:34.248Z,-0.53
2018-03-16T21:40:01.892Z,-0.58
2018-03-16T21:42:30.032Z,-0.57
2018-03-16T21:45:02.498Z,-0.52
2018-03-16T21:47:30.448Z,-0.49
2018-03-16T21:49:58.285Z,-0.54
2018-03-16T21:52:25.959Z,-0.59
2018-03-16T21:54:53.588Z,-0.54
2018-03-16T21:57:21.156Z,-0.50
2018-03-16T21:59:48.751Z,-0.58
2018-03-16T22:02:16.542Z,-0.64
2018-03-16T22:04:44.148Z,-0.61
2018-03-16T22:07:11.762Z,-0.65
2018-03-16T22:09:39.375Z,-0.63
2018-03-16T22:12:07.011Z,-0.68
2018-03-16T22:14:34.938Z,-0.76
2018-03-16T22:17:02.695Z,-0.70
2018-03-16T22:19:30.682Z,-0.69
2018-03-16T22:21:58.263Z,-0.68
2018-03-16T22:24:26.044Z,-0.80
2018-03-16T22:26:53.711Z,-0.76
2018-03-16T22:29:21.398Z,-0.72
2018-03-16T22:31:48.973Z,-0.71
2018-03-16T22:34:16.639Z,-0.80
2018-03-16T22:36:44.209Z,-0.81
2018-03-16T22:39:11.900Z,-0.82
2018-03-16T22:41:39.530Z,-0.87
2018-03-16T22:44:07.249Z,-0.83
2018-03-16T22:46:34.823Z,-0.78
2018-03-16T22:49:03.009Z,-0.80
2018-03-16T22:51:30.786Z,-0.81
2018-03-16T22:53:58.371Z,-0.83
2018-03-16T22:56:26.240Z,-0.85
2018-03-16T22:58:53.903Z,-0.84
2018-03-16T23:01:21.569Z,-0.86
2018-03-16T23:03:49.172Z,-0.89
2018-03-16T23:06:16.838Z,-0.96
2018-03-16T23:08:44.500Z,-0.92
2018-03-16T23:11:12.173Z,-0.97
2018-03-16T23:13:39.854Z,-0.96
2018-03-16T23:16:07.463Z,-0.89
2018-03-16T23:18:35.065Z,-1.01
2018-03-16T23:21:02.894Z,-1.01
2018-03-16T23:23:30.609Z,-1.01
2018-03-16T23:25:58.206Z,-1.06
2018-03-16T23:28:25.813Z,-1.04
2018-03-16T23:30:53.478Z,-0.98
2018-03-16T23:33:21.073Z,-0.99
2018-03-16T23:35:48.818Z,-1.04
2018-03-16T23:38:16.437Z,-0.99
2018-03-16T23:40:44.013Z,-1.03
2018-03-16T23:43:11.641Z,-1.08
2018-03-16T23:45:39.201Z,-1.07
2018-03-16T23:48:06.777Z,-1.16
2018-03-16T23:50:34.469Z,-1.16
2018-03-16T23:53:02.072Z,-1.11
2018-03-16T23:55:29.719Z,-1.11
2018-03-16T23:57:57.415Z,-1.10
